ADDS METAR Data INFO
IDs: Format: Raw Decoded Include TAF

Data at: 1019 UTC 12 Dec 2017

METAR for:KBKV (Brooksville/Hernando, FL, US)
Text:KBKV 120953Z AUTO 16003KT 10SM FEW038 06/06 A3007 RMK AO2 SLP182 T00610056
Temperature: 6.1°C ( 43°F)
Dewpoint: 5.6°C ( 42°F) [RH = 97%]
Pressure (altimeter):30.07 inches Hg (1018.4 mb) [Sea level pressure: 1018.2 mb]
Winds:from the SSE (160 degrees) at 3 MPH (3 knots; 1.5 m/s)
Visibility:10 or more sm (16+ km)
Ceiling:at least 12,000 feet AGL
Clouds: few clouds at 3800 feet AGL
QC Flag:automated observation with no human augmentation